sensor_id;sensor_type;location;lat;lon;timestamp;temperature;humidity
16846;DHT22;8539;53.188;8.696;2023-01-26T00:01:12;-1.10;99.90
16846;DHT22;8539;53.188;8.696;2023-01-26T00:03:42;-1.10;99.90
16846;DHT22;8539;53.188;8.696;2023-01-26T00:06:11;-1.10;99.90
16846;DHT22;8539;53.188;8.696;2023-01-26T00:08:39;-1.10;99.90
16846;DHT22;8539;53.188;8.696;2023-01-26T00:11:07;-1.10;99.90
16846;DHT22;8539;53.188;8.696;2023-01-26T00:13:33;-1.20;99.90
16846;DHT22;8539;53.188;8.696;2023-01-26T00:16:00;-1.20;99.90
16846;DHT22;8539;53.188;8.696;2023-01-26T00:18:27;-1.20;99.90
16846;DHT22;8539;53.188;8.696;2023-01-26T00:20:57;-1.20;99.90
16846;DHT22;8539;53.188;8.696;2023-01-26T00:23:24;-1.10;99.90
16846;DHT22;8539;53.188;8.696;2023-01-26T00:25:50;-1.10;99.90
16846;DHT22;8539;53.188;8.696;2023-01-26T00:28:16;-1.10;99.90
16846;DHT22;8539;53.188;8.696;2023-01-26T00:30:42;-1.10;99.90
16846;DHT22;8539;53.188;8.696;2023-01-26T00:33:08;-1.10;99.90
16846;DHT22;8539;53.188;8.696;2023-01-26T00:35:35;-1.10;99.90
16846;DHT22;8539;53.188;8.696;2023-01-26T00:38:01;-1.10;99.90
16846;DHT22;8539;53.188;8.696;2023-01-26T00:40:27;-1.10;99.90
16846;DHT22;8539;53.188;8.696;2023-01-26T00:42:53;-1.10;99.90
16846;DHT22;8539;53.188;8.696;2023-01-26T00:45:20;-1.00;99.90
16846;DHT22;8539;53.188;8.696;2023-01-26T00:47:47;-1.10;99.90
16846;DHT22;8539;53.188;8.696;2023-01-26T00:50:13;-1.10;99.90
16846;DHT22;8539;53.188;8.696;2023-01-26T00:52:39;-1.20;99.90
16846;DHT22;8539;53.188;8.696;2023-01-26T00:55:06;-1.10;99.90
16846;DHT22;8539;53.188;8.696;2023-01-26T00:57:32;-1.20;99.90
16846;DHT22;8539;53.188;8.696;2023-01-26T00:59:58;-1.10;99.90
16846;DHT22;8539;53.188;8.696;2023-01-26T01:02:24;-0.80;99.90
16846;DHT22;8539;53.188;8.696;2023-01-26T01:04:50;-1.10;99.90
16846;DHT22;8539;53.188;8.696;2023-01-26T01:07:16;-1.10;99.90
16846;DHT22;8539;53.188;8.696;2023-01-26T01:09:44;-1.10;99.90
16846;DHT22;8539;53.188;8.696;2023-01-26T01:12:11;-1.10;99.90
16846;DHT22;8539;53.188;8.696;2023-01-26T01:14:37;-1.10;99.90
16846;DHT22;8539;53.188;8.696;2023-01-26T01:17:03;-1.10;99.90
16846;DHT22;8539;53.188;8.696;2023-01-26T01:19:29;-0.90;99.90
16846;DHT22;8539;53.188;8.696;2023-01-26T01:21:55;-1.10;99.90
16846;DHT22;8539;53.188;8.696;2023-01-26T01:24:21;-1.10;99.90
16846;DHT22;8539;53.188;8.696;2023-01-26T01:26:47;-1.10;99.90
16846;DHT22;8539;53.188;8.696;2023-01-26T01:29:14;-1.10;99.90
16846;DHT22;8539;53.188;8.696;2023-01-26T01:31:40;-1.00;99.90
16846;DHT22;8539;53.188;8.696;2023-01-26T01:34:08;-1.10;99.90
16846;DHT22;8539;53.188;8.696;2023-01-26T01:36:35;-1.10;99.90
16846;DHT22;8539;53.188;8.696;2023-01-26T01:39:01;-1.10;99.90
16846;DHT22;8539;53.188;8.696;2023-01-26T01:41:27;-1.10;99.90
16846;DHT22;8539;53.188;8.696;2023-01-26T01:44:20;-1.10;99.90
16846;DHT22;8539;53.188;8.696;2023-01-26T01:47:11;-1.10;99.90
16846;DHT22;8539;53.188;8.696;2023-01-26T01:49:44;-0.90;99.90
16846;DHT22;8539;53.188;8.696;2023-01-26T01:52:17;-1.00;99.90
16846;DHT22;8539;53.188;8.696;2023-01-26T01:55:07;-1.00;99.90
16846;DHT22;8539;53.188;8.696;2023-01-26T01:57:44;-1.00;99.90
16846;DHT22;8539;53.188;8.696;2023-01-26T02:00:15;-1.00;99.90
16846;DHT22;8539;53.188;8.696;2023-01-26T02:03:09;-1.00;99.90
16846;DHT22;8539;53.188;8.696;2023-01-26T02:08:18;-1.00;99.90
16846;DHT22;8539;53.188;8.696;2023-01-26T02:10:48;-1.00;99.90
16846;DHT22;8539;53.188;8.696;2023-01-26T02:13:18;-0.90;99.90
16846;DHT22;8539;53.188;8.696;2023-01-26T02:15:45;-1.00;99.90
16846;DHT22;8539;53.188;8.696;2023-01-26T02:18:12;-1.00;99.90
16846;DHT22;8539;53.188;8.696;2023-01-26T02:21:36;-0.90;99.90
16846;DHT22;8539;53.188;8.696;2023-01-26T02:24:14;-0.90;99.90
16846;DHT22;8539;53.188;8.696;2023-01-26T02:26:41;-0.90;99.90
16846;DHT22;8539;53.188;8.696;2023-01-26T02:29:09;-0.90;99.90
16846;DHT22;8539;53.188;8.696;2023-01-26T02:31:37;-0.90;99.90
16846;DHT22;8539;53.188;8.696;2023-01-26T02:34:03;-0.70;99.90
16846;DHT22;8539;53.188;8.696;2023-01-26T02:36:32;-0.90;99.90
16846;DHT22;8539;53.188;8.696;2023-01-26T02:41:46;-0.90;99.90
16846;DHT22;8539;53.188;8.696;2023-01-26T02:44:33;-0.80;99.90
16846;DHT22;8539;53.188;8.696;2023-01-26T02:46:59;-0.80;99.90
16846;DHT22;8539;53.188;8.696;2023-01-26T02:49:25;-0.70;99.90
16846;DHT22;8539;53.188;8.696;2023-01-26T02:52:09;-0.80;99.90
16846;DHT22;8539;53.188;8.696;2023-01-26T02:54:35;-0.80;99.90
16846;DHT22;8539;53.188;8.696;2023-01-26T02:57:20;-0.70;99.90
16846;DHT22;8539;53.188;8.696;2023-01-26T02:59:46;-0.70;99.90
16846;DHT22;8539;53.188;8.696;2023-01-26T03:02:12;-0.70;99.90
16846;DHT22;8539;53.188;8.696;2023-01-26T03:04:38;-0.70;99.90
16846;DHT22;8539;53.188;8.696;2023-01-26T03:07:04;-0.70;99.90
16846;DHT22;8539;53.188;8.696;2023-01-26T03:09:30;-0.70;99.90
16846;DHT22;8539;53.188;8.696;2023-01-26T03:11:56;-0.70;99.90
16846;DHT22;8539;53.188;8.696;2023-01-26T03:14:23;-0.60;99.90
16846;DHT22;8539;53.188;8.696;2023-01-26T03:16:49;-0.70;99.90
16846;DHT22;8539;53.188;8.696;2023-01-26T03:19:15;-0.60;99.90
16846;DHT22;8539;53.188;8.696;2023-01-26T03:22:00;-0.70;99.90
16846;DHT22;8539;53.188;8.696;2023-01-26T03:24:45;-0.60;99.90
16846;DHT22;8539;53.188;8.696;2023-01-26T03:27:45;-0.60;99.90
16846;DHT22;8539;53.188;8.696;2023-01-26T03:30:13;-0.60;99.90
16846;DHT22;8539;53.188;8.696;2023-01-26T03:32:40;-0.60;99.90
16846;DHT22;8539;53.188;8.696;2023-01-26T03:35:06;-0.70;99.90
16846;DHT22;8539;53.188;8.696;2023-01-26T03:37:34;-0.60;99.90
16846;DHT22;8539;53.188;8.696;2023-01-26T03:40:04;-0.70;99.90
16846;DHT22;8539;53.188;8.696;2023-01-26T03:43:07;-0.60;99.90
16846;DHT22;8539;53.188;8.696;2023-01-26T03:45:52;-0.60;99.90
16846;DHT22;8539;53.188;8.696;2023-01-26T03:48:37;-0.60;99.90
16846;DHT22;8539;53.188;8.696;2023-01-26T03:51:21;-0.60;99.90
16846;DHT22;8539;53.188;8.696;2023-01-26T03:54:06;-0.60;99.90
16846;DHT22;8539;53.188;8.696;2023-01-26T03:56:51;-0.60;99.90
16846;DHT22;8539;53.188;8.696;2023-01-26T03:59:17;-0.60;99.90
16846;DHT22;8539;53.188;8.696;2023-01-26T04:01:50;-0.50;99.90
16846;DHT22;8539;53.188;8.696;2023-01-26T04:04:34;-0.60;99.90
16846;DHT22;8539;53.188;8.696;2023-01-26T04:07:19;-0.50;99.90
16846;DHT22;8539;53.188;8.696;2023-01-26T04:10:03;-0.50;99.90
16846;DHT22;8539;53.188;8.696;2023-01-26T04:12:31;-0.50;99.90
16846;DHT22;8539;53.188;8.696;2023-01-26T04:14:59;-0.50;99.90
16846;DHT22;8539;53.188;8.696;2023-01-26T04:17:44;-0.50;99.90
16846;DHT22;8539;53.188;8.696;2023-01-26T04:20:29;-0.50;99.90
16846;DHT22;8539;53.188;8.696;2023-01-26T04:23:18;-0.30;99.90
16846;DHT22;8539;53.188;8.696;2023-01-26T04:25:45;-0.40;99.90
16846;DHT22;8539;53.188;8.696;2023-01-26T04:28:12;-0.40;99.90
16846;DHT22;8539;53.188;8.696;2023-01-26T04:30:38;-0.40;99.90
16846;DHT22;8539;53.188;8.696;2023-01-26T04:33:04;-0.40;99.90
16846;DHT22;8539;53.188;8.696;2023-01-26T04:35:31;-0.40;99.90
16846;DHT22;8539;53.188;8.696;2023-01-26T04:37:57;-0.50;99.90
16846;DHT22;8539;53.188;8.696;2023-01-26T04:40:24;-0.40;99.90
16846;DHT22;8539;53.188;8.696;2023-01-26T04:42:49;-0.40;99.90
16846;DHT22;8539;53.188;8.696;2023-01-26T04:45:16;-0.40;99.90
16846;DHT22;8539;53.188;8.696;2023-01-26T04:47:42;-0.40;99.90
16846;DHT22;8539;53.188;8.696;2023-01-26T04:50:08;-0.40;99.90
16846;DHT22;8539;53.188;8.696;2023-01-26T04:52:34;-0.30;99.90
16846;DHT22;8539;53.188;8.696;2023-01-26T04:55:00;-0.40;99.90
16846;DHT22;8539;53.188;8.696;2023-01-26T04:57:26;-0.40;99.90
16846;DHT22;8539;53.188;8.696;2023-01-26T04:59:52;-0.30;99.90
16846;DHT22;8539;53.188;8.696;2023-01-26T05:02:18;-0.40;99.90
16846;DHT22;8539;53.188;8.696;2023-01-26T05:04:44;-0.30;99.90
16846;DHT22;8539;53.188;8.696;2023-01-26T05:07:11;-0.30;99.90
16846;DHT22;8539;53.188;8.696;2023-01-26T05:09:37;-0.30;99.90
16846;DHT22;8539;53.188;8.696;2023-01-26T05:12:03;-0.30;99.90
16846;DHT22;8539;53.188;8.696;2023-01-26T05:14:47;-0.20;99.90
16846;DHT22;8539;53.188;8.696;2023-01-26T05:17:13;-0.30;99.90
16846;DHT22;8539;53.188;8.696;2023-01-26T05:19:39;-0.30;99.90
16846;DHT22;8539;53.188;8.696;2023-01-26T05:22:05;-0.20;99.90
16846;DHT22;8539;53.188;8.696;2023-01-26T05:24:31;-0.20;99.90
16846;DHT22;8539;53.188;8.696;2023-01-26T05:26:58;-0.20;99.90
16846;DHT22;8539;53.188;8.696;2023-01-26T05:29:42;0.00;99.90
16846;DHT22;8539;53.188;8.696;2023-01-26T05:32:09;-0.20;99.90
16846;DHT22;8539;53.188;8.696;2023-01-26T05:34:35;-0.20;99.90
16846;DHT22;8539;53.188;8.696;2023-01-26T05:37:01;-0.20;99.90
16846;DHT22;8539;53.188;8.696;2023-01-26T05:39:27;-0.20;99.90
16846;DHT22;8539;53.188;8.696;2023-01-26T05:41:53;-0.20;99.90
16846;DHT22;8539;53.188;8.696;2023-01-26T05:44:24;-0.20;99.90
16846;DHT22;8539;53.188;8.696;2023-01-26T05:46:51;-0.20;99.90
16846;DHT22;8539;53.188;8.696;2023-01-26T05:49:17;-0.10;99.90
16846;DHT22;8539;53.188;8.696;2023-01-26T05:51:43;-0.10;99.90
16846;DHT22;8539;53.188;8.696;2023-01-26T05:54:09;-0.10;99.90
16846;DHT22;8539;53.188;8.696;2023-01-26T05:56:35;-0.10;99.90
16846;DHT22;8539;53.188;8.696;2023-01-26T05:59:01;-0.10;99.90
16846;DHT22;8539;53.188;8.696;2023-01-26T06:01:28;-0.10;99.90
16846;DHT22;8539;53.188;8.696;2023-01-26T06:03:54;-0.10;99.90
16846;DHT22;8539;53.188;8.696;2023-01-26T06:06:20;-0.10;99.90
16846;DHT22;8539;53.188;8.696;2023-01-26T06:08:46;-0.10;99.90
16846;DHT22;8539;53.188;8.696;2023-01-26T06:11:12;-0.10;99.90
16846;DHT22;8539;53.188;8.696;2023-01-26T06:13:38;0.00;99.90
16846;DHT22;8539;53.188;8.696;2023-01-26T06:16:05;0.00;99.90
16846;DHT22;8539;53.188;8.696;2023-01-26T06:18:31;0.00;99.90
16846;DHT22;8539;53.188;8.696;2023-01-26T06:20:58;0.00;99.90
16846;DHT22;8539;53.188;8.696;2023-01-26T06:23:26;0.10;99.90
16846;DHT22;8539;53.188;8.696;2023-01-26T06:25:52;0.10;99.90
16846;DHT22;8539;53.188;8.696;2023-01-26T06:28:22;0.10;99.90
16846;DHT22;8539;53.188;8.696;2023-01-26T06:30:49;0.10;99.90
16846;DHT22;8539;53.188;8.696;2023-01-26T06:33:15;0.10;99.90
16846;DHT22;8539;53.188;8.696;2023-01-26T06:35:41;0.10;99.90
16846;DHT22;8539;53.188;8.696;2023-01-26T06:38:07;0.10;99.90
16846;DHT22;8539;53.188;8.696;2023-01-26T06:40:33;0.10;99.90
16846;DHT22;8539;53.188;8.696;2023-01-26T06:42:59;0.10;99.90
16846;DHT22;8539;53.188;8.696;2023-01-26T06:45:25;0.10;99.90
16846;DHT22;8539;53.188;8.696;2023-01-26T06:47:51;0.10;99.90
16846;DHT22;8539;53.188;8.696;2023-01-26T06:50:20;0.10;99.90
16846;DHT22;8539;53.188;8.696;2023-01-26T06:52:50;0.10;99.90
16846;DHT22;8539;53.188;8.696;2023-01-26T06:55:21;0.10;99.90
16846;DHT22;8539;53.188;8.696;2023-01-26T06:57:48;0.10;99.90
16846;DHT22;8539;53.188;8.696;2023-01-26T07:00:14;0.10;99.90
16846;DHT22;8539;53.188;8.696;2023-01-26T07:02:40;0.10;99.90
16846;DHT22;8539;53.188;8.696;2023-01-26T07:05:07;0.70;99.90
16846;DHT22;8539;53.188;8.696;2023-01-26T07:07:33;0.10;99.90
16846;DHT22;8539;53.188;8.696;2023-01-26T07:09:59;0.10;99.90
16846;DHT22;8539;53.188;8.696;2023-01-26T07:12:25;0.10;99.90
16846;DHT22;8539;53.188;8.696;2023-01-26T07:15:02;0.10;99.90
16846;DHT22;8539;53.188;8.696;2023-01-26T07:17:30;0.10;99.90
16846;DHT22;8539;53.188;8.696;2023-01-26T07:19:56;0.10;99.90
16846;DHT22;8539;53.188;8.696;2023-01-26T07:22:22;0.10;99.90
16846;DHT22;8539;53.188;8.696;2023-01-26T07:24:48;0.10;99.90
16846;DHT22;8539;53.188;8.696;2023-01-26T07:27:14;0.20;99.90
16846;DHT22;8539;53.188;8.696;2023-01-26T07:29:40;0.10;99.90
16846;DHT22;8539;53.188;8.696;2023-01-26T07:32:06;0.30;99.90
16846;DHT22;8539;53.188;8.696;2023-01-26T07:34:32;0.10;99.90
16846;DHT22;8539;53.188;8.696;2023-01-26T07:36:58;0.10;99.90
16846;DHT22;8539;53.188;8.696;2023-01-26T07:39:24;0.10;99.90
16846;DHT22;8539;53.188;8.696;2023-01-26T07:41:51;0.10;99.90
16846;DHT22;8539;53.188;8.696;2023-01-26T07:44:17;0.10;99.90
16846;DHT22;8539;53.188;8.696;2023-01-26T07:46:46;0.10;99.90
16846;DHT22;8539;53.188;8.696;2023-01-26T07:49:12;0.30;99.90
16846;DHT22;8539;53.188;8.696;2023-01-26T07:51:38;0.10;99.90
16846;DHT22;8539;53.188;8.696;2023-01-26T07:54:06;0.30;99.90
16846;DHT22;8539;53.188;8.696;2023-01-26T07:56:32;0.20;99.90
16846;DHT22;8539;53.188;8.696;2023-01-26T07:58:58;0.20;99.90
16846;DHT22;8539;53.188;8.696;2023-01-26T08:01:25;0.20;99.90
16846;DHT22;8539;53.188;8.696;2023-01-26T08:03:51;0.20;99.90
16846;DHT22;8539;53.188;8.696;2023-01-26T08:06:21;0.20;99.90
16846;DHT22;8539;53.188;8.696;2023-01-26T08:08:48;0.20;99.90
16846;DHT22;8539;53.188;8.696;2023-01-26T08:11:18;0.20;99.90
16846;DHT22;8539;53.188;8.696;2023-01-26T08:13:47;0.20;99.90
16846;DHT22;8539;53.188;8.696;2023-01-26T08:16:13;0.30;99.90
16846;DHT22;8539;53.188;8.696;2023-01-26T08:18:44;0.20;99.90
16846;DHT22;8539;53.188;8.696;2023-01-26T08:21:12;0.20;99.90
16846;DHT22;8539;53.188;8.696;2023-01-26T08:23:38;0.20;99.90
16846;DHT22;8539;53.188;8.696;2023-01-26T08:26:10;0.30;99.90
16846;DHT22;8539;53.188;8.696;2023-01-26T08:28:36;0.30;99.90
16846;DHT22;8539;53.188;8.696;2023-01-26T08:31:09;0.30;99.90
16846;DHT22;8539;53.188;8.696;2023-01-26T08:33:39;0.30;99.90
16846;DHT22;8539;53.188;8.696;2023-01-26T08:36:08;0.30;99.90
16846;DHT22;8539;53.188;8.696;2023-01-26T08:38:35;0.30;99.90
16846;DHT22;8539;53.188;8.696;2023-01-26T08:41:02;0.40;99.90
16846;DHT22;8539;53.188;8.696;2023-01-26T08:43:29;0.40;99.90
16846;DHT22;8539;53.188;8.696;2023-01-26T08:45:55;0.40;99.90
16846;DHT22;8539;53.188;8.696;2023-01-26T08:48:22;0.50;99.90
16846;DHT22;8539;53.188;8.696;2023-01-26T08:50:53;0.40;99.90
16846;DHT22;8539;53.188;8.696;2023-01-26T08:53:20;0.40;99.90
16846;DHT22;8539;53.188;8.696;2023-01-26T08:55:46;0.40;99.90
16846;DHT22;8539;53.188;8.696;2023-01-26T08:58:12;0.40;99.90
16846;DHT22;8539;53.188;8.696;2023-01-26T09:00:38;0.40;99.90
16846;DHT22;8539;53.188;8.696;2023-01-26T09:03:05;0.40;99.90
16846;DHT22;8539;53.188;8.696;2023-01-26T09:05:35;0.50;99.90
16846;DHT22;8539;53.188;8.696;2023-01-26T09:08:04;0.60;99.90
16846;DHT22;8539;53.188;8.696;2023-01-26T09:10:31;0.50;99.90
16846;DHT22;8539;53.188;8.696;2023-01-26T09:12:58;0.70;99.90
16846;DHT22;8539;53.188;8.696;2023-01-26T09:15:25;0.50;99.90
16846;DHT22;8539;53.188;8.696;2023-01-26T09:17:52;0.50;99.90
16846;DHT22;8539;53.188;8.696;2023-01-26T09:20:19;0.60;99.90
16846;DHT22;8539;53.188;8.696;2023-01-26T09:22:45;0.50;99.90
16846;DHT22;8539;53.188;8.696;2023-01-26T09:25:13;0.60;99.90
16846;DHT22;8539;53.188;8.696;2023-01-26T09:27:39;0.60;99.90
16846;DHT22;8539;53.188;8.696;2023-01-26T09:30:07;0.60;99.90
16846;DHT22;8539;53.188;8.696;2023-01-26T09:32:33;0.60;99.90
16846;DHT22;8539;53.188;8.696;2023-01-26T09:34:59;0.70;99.90
16846;DHT22;8539;53.188;8.696;2023-01-26T09:37:25;0.80;99.90
16846;DHT22;8539;53.188;8.696;2023-01-26T09:39:51;0.70;99.90
16846;DHT22;8539;53.188;8.696;2023-01-26T09:42:29;0.70;99.90
16846;DHT22;8539;53.188;8.696;2023-01-26T09:48:04;0.80;99.90
16846;DHT22;8539;53.188;8.696;2023-01-26T09:51:02;0.70;99.90
16846;DHT22;8539;53.188;8.696;2023-01-26T09:53:46;0.90;99.90
16846;DHT22;8539;53.188;8.696;2023-01-26T09:56:18;0.90;99.90
16846;DHT22;8539;53.188;8.696;2023-01-26T09:58:50;0.90;99.90
16846;DHT22;8539;53.188;8.696;2023-01-26T10:04:09;1.00;99.90
16846;DHT22;8539;53.188;8.696;2023-01-26T10:06:36;1.00;99.90
16846;DHT22;8539;53.188;8.696;2023-01-26T10:09:26;1.10;99.90
16846;DHT22;8539;53.188;8.696;2023-01-26T10:11:59;1.10;99.90
16846;DHT22;8539;53.188;8.696;2023-01-26T10:14:35;1.20;99.90
16846;DHT22;8539;53.188;8.696;2023-01-26T10:17:04;1.20;99.90
16846;DHT22;8539;53.188;8.696;2023-01-26T10:19:36;1.20;99.90
16846;DHT22;8539;53.188;8.696;2023-01-26T10:22:34;1.30;99.90
16846;DHT22;8539;53.188;8.696;2023-01-26T10:25:02;1.30;99.90
16846;DHT22;8539;53.188;8.696;2023-01-26T10:27:36;1.30;99.90
16846;DHT22;8539;53.188;8.696;2023-01-26T10:30:02;1.40;99.90
16846;DHT22;8539;53.188;8.696;2023-01-26T10:32:28;1.40;99.90
16846;DHT22;8539;53.188;8.696;2023-01-26T10:34:56;1.50;99.90
16846;DHT22;8539;53.188;8.696;2023-01-26T10:37:27;1.50;99.90
16846;DHT22;8539;53.188;8.696;2023-01-26T10:40:01;1.50;99.90
16846;DHT22;8539;53.188;8.696;2023-01-26T10:42:30;1.60;99.90
16846;DHT22;8539;53.188;8.696;2023-01-26T10:45:02;1.60;99.90
16846;DHT22;8539;53.188;8.696;2023-01-26T10:47:28;1.70;99.90
16846;DHT22;8539;53.188;8.696;2023-01-26T10:50:19;1.70;99.90
16846;DHT22;8539;53.188;8.696;2023-01-26T10:53:02;1.70;99.90
16846;DHT22;8539;53.188;8.696;2023-01-26T10:55:33;1.80;99.90
16846;DHT22;8539;53.188;8.696;2023-01-26T10:58:01;1.70;99.90
16846;DHT22;8539;53.188;8.696;2023-01-26T11:00:29;1.90;99.90
16846;DHT22;8539;53.188;8.696;2023-01-26T11:05:31;2.00;99.90
16846;DHT22;8539;53.188;8.696;2023-01-26T11:07:57;2.00;99.90
16846;DHT22;8539;53.188;8.696;2023-01-26T11:15:40;2.20;99.90
16846;DHT22;8539;53.188;8.696;2023-01-26T11:29:29;2.40;99.90
16846;DHT22;8539;53.188;8.696;2023-01-26T11:37:46;2.70;99.90
16846;DHT22;8539;53.188;8.696;2023-01-26T11:40:40;2.80;99.90
16846;DHT22;8539;53.188;8.696;2023-01-26T11:46:15;3.10;99.90
16846;DHT22;8539;53.188;8.696;2023-01-26T11:51:40;3.20;99.90
16846;DHT22;8539;53.188;8.696;2023-01-26T11:54:17;3.30;99.90
16846;DHT22;8539;53.188;8.696;2023-01-26T11:59:38;3.40;99.90
16846;DHT22;8539;53.188;8.696;2023-01-26T12:04:42;3.50;99.90
16846;DHT22;8539;53.188;8.696;2023-01-26T12:07:22;3.60;99.90
16846;DHT22;8539;53.188;8.696;2023-01-26T12:09:49;3.60;99.90
16846;DHT22;8539;53.188;8.696;2023-01-26T12:12:40;3.70;99.90
16846;DHT22;8539;53.188;8.696;2023-01-26T12:15:15;3.70;99.90
16846;DHT22;8539;53.188;8.696;2023-01-26T12:17:58;3.90;99.90
16846;DHT22;8539;53.188;8.696;2023-01-26T12:20:39;3.90;99.90
16846;DHT22;8539;53.188;8.696;2023-01-26T12:23:23;3.90;99.90
16846;DHT22;8539;53.188;8.696;2023-01-26T12:25:56;4.00;99.90
16846;DHT22;8539;53.188;8.696;2023-01-26T12:28:49;4.20;99.90
16846;DHT22;8539;53.188;8.696;2023-01-26T12:31:29;4.10;99.90
16846;DHT22;8539;53.188;8.696;2023-01-26T12:33:55;4.10;99.90
16846;DHT22;8539;53.188;8.696;2023-01-26T12:39:07;4.30;99.90
16846;DHT22;8539;53.188;8.696;2023-01-26T12:41:59;4.40;99.90
16846;DHT22;8539;53.188;8.696;2023-01-26T12:44:35;4.50;99.90
16846;DHT22;8539;53.188;8.696;2023-01-26T12:47:22;4.50;99.90
16846;DHT22;8539;53.188;8.696;2023-01-26T12:52:39;4.80;99.90
16846;DHT22;8539;53.188;8.696;2023-01-26T12:55:22;5.10;99.90
16846;DHT22;8539;53.188;8.696;2023-01-26T12:58:03;5.00;99.90
16846;DHT22;8539;53.188;8.696;2023-01-26T13:00:32;5.10;99.90
16846;DHT22;8539;53.188;8.696;2023-01-26T13:03:27;5.50;99.90
16846;DHT22;8539;53.188;8.696;2023-01-26T13:05:56;5.40;99.90
16846;DHT22;8539;53.188;8.696;2023-01-26T13:10:59;5.70;99.90
16846;DHT22;8539;53.188;8.696;2023-01-26T13:18:55;5.80;99.90
16846;DHT22;8539;53.188;8.696;2023-01-26T13:21:43;5.90;99.90
16846;DHT22;8539;53.188;8.696;2023-01-26T13:26:45;6.00;99.90
16846;DHT22;8539;53.188;8.696;2023-01-26T13:29:26;6.00;99.90
16846;DHT22;8539;53.188;8.696;2023-01-26T13:34:44;6.10;99.90
16846;DHT22;8539;53.188;8.696;2023-01-26T13:37:16;6.10;99.90
16846;DHT22;8539;53.188;8.696;2023-01-26T13:40:05;6.30;99.90
16846;DHT22;8539;53.188;8.696;2023-01-26T13:43:02;6.30;99.90
16846;DHT22;8539;53.188;8.696;2023-01-26T13:48:19;6.30;99.90
16846;DHT22;8539;53.188;8.696;2023-01-26T13:50:50;6.30;99.90
16846;DHT22;8539;53.188;8.696;2023-01-26T13:54:10;6.30;99.90
16846;DHT22;8539;53.188;8.696;2023-01-26T13:59:12;6.30;99.90
16846;DHT22;8539;53.188;8.696;2023-01-26T14:01:42;6.30;99.90
16846;DHT22;8539;53.188;8.696;2023-01-26T14:04:15;6.40;99.90
16846;DHT22;8539;53.188;8.696;2023-01-26T14:06:48;6.40;99.90
16846;DHT22;8539;53.188;8.696;2023-01-26T14:09:16;6.30;99.90
16846;DHT22;8539;53.188;8.696;2023-01-26T14:11:43;6.40;99.90
16846;DHT22;8539;53.188;8.696;2023-01-26T14:14:38;6.40;99.90
16846;DHT22;8539;53.188;8.696;2023-01-26T14:17:27;6.30;99.90
16846;DHT22;8539;53.188;8.696;2023-01-26T14:19:53;6.30;99.90
16846;DHT22;8539;53.188;8.696;2023-01-26T14:22:20;6.30;99.90
16846;DHT22;8539;53.188;8.696;2023-01-26T14:24:51;6.30;99.90
16846;DHT22;8539;53.188;8.696;2023-01-26T14:29:53;6.20;99.90
16846;DHT22;8539;53.188;8.696;2023-01-26T14:32:19;6.10;99.90
16846;DHT22;8539;53.188;8.696;2023-01-26T14:34:55;6.20;99.90
16846;DHT22;8539;53.188;8.696;2023-01-26T14:37:22;6.00;99.90
16846;DHT22;8539;53.188;8.696;2023-01-26T14:40:08;6.00;99.90
16846;DHT22;8539;53.188;8.696;2023-01-26T14:42:35;5.90;99.90
16846;DHT22;8539;53.188;8.696;2023-01-26T14:45:01;5.90;99.90
16846;DHT22;8539;53.188;8.696;2023-01-26T14:47:31;5.90;99.90
16846;DHT22;8539;53.188;8.696;2023-01-26T14:52:43;5.80;99.90
16846;DHT22;8539;53.188;8.696;2023-01-26T14:55:21;5.80;99.90
16846;DHT22;8539;53.188;8.696;2023-01-26T14:57:47;5.80;99.90
16846;DHT22;8539;53.188;8.696;2023-01-26T15:00:34;5.80;99.90
16846;DHT22;8539;53.188;8.696;2023-01-26T15:03:10;5.80;99.90
16846;DHT22;8539;53.188;8.696;2023-01-26T15:05:38;5.70;99.90
16846;DHT22;8539;53.188;8.696;2023-01-26T15:08:23;5.80;99.90
16846;DHT22;8539;53.188;8.696;2023-01-26T15:10:55;5.60;99.90
16846;DHT22;8539;53.188;8.696;2023-01-26T15:13:41;5.60;99.90
16846;DHT22;8539;53.188;8.696;2023-01-26T15:16:17;5.70;99.90
16846;DHT22;8539;53.188;8.696;2023-01-26T15:18:45;5.50;99.90
16846;DHT22;8539;53.188;8.696;2023-01-26T15:21:36;5.60;99.90
16846;DHT22;8539;53.188;8.696;2023-01-26T15:24:12;5.50;99.90
16846;DHT22;8539;53.188;8.696;2023-01-26T15:26:39;5.40;99.90
16846;DHT22;8539;53.188;8.696;2023-01-26T15:29:27;5.50;99.90
16846;DHT22;8539;53.188;8.696;2023-01-26T15:31:56;5.40;99.90
16846;DHT22;8539;53.188;8.696;2023-01-26T15:36:56;5.30;99.90
16846;DHT22;8539;53.188;8.696;2023-01-26T15:39:23;5.30;99.90
16846;DHT22;8539;53.188;8.696;2023-01-26T15:42:09;5.20;99.90
16846;DHT22;8539;53.188;8.696;2023-01-26T15:44:37;5.20;99.90
16846;DHT22;8539;53.188;8.696;2023-01-26T15:47:03;5.20;99.90
16846;DHT22;8539;53.188;8.696;2023-01-26T15:49:29;5.20;99.90
16846;DHT22;8539;53.188;8.696;2023-01-26T15:51:55;5.10;99.90
16846;DHT22;8539;53.188;8.696;2023-01-26T15:54:22;5.10;99.90
16846;DHT22;8539;53.188;8.696;2023-01-26T15:56:48;5.40;99.90
16846;DHT22;8539;53.188;8.696;2023-01-26T15:59:14;5.10;99.90
16846;DHT22;8539;53.188;8.696;2023-01-26T16:01:40;5.00;99.90
16846;DHT22;8539;53.188;8.696;2023-01-26T16:04:11;5.00;99.90
16846;DHT22;8539;53.188;8.696;2023-01-26T16:06:38;4.90;99.90
16846;DHT22;8539;53.188;8.696;2023-01-26T16:09:04;4.90;99.90
16846;DHT22;8539;53.188;8.696;2023-01-26T16:11:34;4.90;99.90
16846;DHT22;8539;53.188;8.696;2023-01-26T16:14:01;4.90;99.90
16846;DHT22;8539;53.188;8.696;2023-01-26T16:16:28;4.80;99.90
16846;DHT22;8539;53.188;8.696;2023-01-26T16:18:55;4.80;99.90
16846;DHT22;8539;53.188;8.696;2023-01-26T16:21:26;4.80;99.90
16846;DHT22;8539;53.188;8.696;2023-01-26T16:23:58;4.70;99.90
16846;DHT22;8539;53.188;8.696;2023-01-26T16:26:26;4.80;99.90
16846;DHT22;8539;53.188;8.696;2023-01-26T16:28:53;4.70;99.90
16846;DHT22;8539;53.188;8.696;2023-01-26T16:31:24;4.70;99.90
16846;DHT22;8539;53.188;8.696;2023-01-26T16:33:51;4.70;99.90
16846;DHT22;8539;53.188;8.696;2023-01-26T16:36:18;4.60;99.90
16846;DHT22;8539;53.188;8.696;2023-01-26T16:38:45;4.60;99.90
16846;DHT22;8539;53.188;8.696;2023-01-26T16:41:27;4.60;99.90
16846;DHT22;8539;53.188;8.696;2023-01-26T16:43:55;4.50;99.90
16846;DHT22;8539;53.188;8.696;2023-01-26T16:46:22;4.50;99.90
16846;DHT22;8539;53.188;8.696;2023-01-26T16:48:48;4.60;99.90
16846;DHT22;8539;53.188;8.696;2023-01-26T16:53:44;4.60;99.90
16846;DHT22;8539;53.188;8.696;2023-01-26T16:56:11;4.60;99.90
16846;DHT22;8539;53.188;8.696;2023-01-26T16:58:38;4.50;99.90
16846;DHT22;8539;53.188;8.696;2023-01-26T17:01:05;4.50;99.90
16846;DHT22;8539;53.188;8.696;2023-01-26T17:03:31;4.50;99.90
16846;DHT22;8539;53.188;8.696;2023-01-26T17:05:57;4.40;99.90
16846;DHT22;8539;53.188;8.696;2023-01-26T17:08:23;4.40;99.90
16846;DHT22;8539;53.188;8.696;2023-01-26T17:10:49;4.40;99.90
16846;DHT22;8539;53.188;8.696;2023-01-26T17:13:15;4.40;99.90
16846;DHT22;8539;53.188;8.696;2023-01-26T17:15:42;4.40;99.90
16846;DHT22;8539;53.188;8.696;2023-01-26T17:18:11;4.40;99.90
16846;DHT22;8539;53.188;8.696;2023-01-26T17:20:38;4.30;99.90
16846;DHT22;8539;53.188;8.696;2023-01-26T17:23:06;4.30;99.90
16846;DHT22;8539;53.188;8.696;2023-01-26T17:25:32;4.40;99.90
16846;DHT22;8539;53.188;8.696;2023-01-26T17:27:58;4.30;99.90
16846;DHT22;8539;53.188;8.696;2023-01-26T17:30:24;4.30;99.90
16846;DHT22;8539;53.188;8.696;2023-01-26T17:32:51;4.30;99.90
16846;DHT22;8539;53.188;8.696;2023-01-26T17:35:17;4.30;99.90
16846;DHT22;8539;53.188;8.696;2023-01-26T17:37:43;4.30;99.90
16846;DHT22;8539;53.188;8.696;2023-01-26T17:40:09;4.30;99.90